sensor_id;sensor_type;location;lat;lon;timestamp;P1;durP1;ratioP1;P2;durP2;ratioP2
64714;SDS011;51144;53.002;6.506;2023-02-15T00:01:23;57.97;;;39.40;;
64714;SDS011;51144;53.002;6.506;2023-02-15T00:03:48;55.28;;;39.05;;
64714;SDS011;51144;53.002;6.506;2023-02-15T00:06:15;54.53;;;37.65;;
64714;SDS011;51144;53.002;6.506;2023-02-15T00:08:41;54.15;;;38.25;;
64714;SDS011;51144;53.002;6.506;2023-02-15T00:11:10;53.70;;;38.72;;
64714;SDS011;51144;53.002;6.506;2023-02-15T00:13:38;48.95;;;36.80;;
64714;SDS011;51144;53.002;6.506;2023-02-15T00:16:07;48.65;;;35.28;;
64714;SDS011;51144;53.002;6.506;2023-02-15T00:18:35;51.83;;;37.28;;
64714;SDS011;51144;53.002;6.506;2023-02-15T00:21:06;50.80;;;37.65;;
64714;SDS011;51144;53.002;6.506;2023-02-15T00:23:35;50.55;;;36.10;;
64714;SDS011;51144;53.002;6.506;2023-02-15T00:26:08;51.00;;;38.78;;
64714;SDS011;51144;53.002;6.506;2023-02-15T00:28:36;53.80;;;37.53;;
64714;SDS011;51144;53.002;6.506;2023-02-15T00:31:06;52.15;;;37.75;;
64714;SDS011;51144;53.002;6.506;2023-02-15T00:33:34;54.25;;;38.83;;
64714;SDS011;51144;53.002;6.506;2023-02-15T00:36:00;53.45;;;38.28;;
64714;SDS011;51144;53.002;6.506;2023-02-15T00:38:27;57.80;;;39.53;;
64714;SDS011;51144;53.002;6.506;2023-02-15T00:40:53;54.38;;;39.53;;
64714;SDS011;51144;53.002;6.506;2023-02-15T00:43:20;57.65;;;39.63;;
64714;SDS011;51144;53.002;6.506;2023-02-15T00:45:46;54.15;;;38.72;;
64714;SDS011;51144;53.002;6.506;2023-02-15T00:48:11;57.65;;;39.50;;
64714;SDS011;51144;53.002;6.506;2023-02-15T00:50:37;60.08;;;41.50;;
64714;SDS011;51144;53.002;6.506;2023-02-15T00:53:03;66.75;;;44.55;;
64714;SDS011;51144;53.002;6.506;2023-02-15T00:55:28;71.72;;;45.90;;
64714;SDS011;51144;53.002;6.506;2023-02-15T00:57:54;72.00;;;47.35;;
64714;SDS011;51144;53.002;6.506;2023-02-15T01:00:20;77.45;;;49.00;;
64714;SDS011;51144;53.002;6.506;2023-02-15T01:02:45;83.95;;;49.35;;
64714;SDS011;51144;53.002;6.506;2023-02-15T01:05:11;84.68;;;49.03;;
64714;SDS011;51144;53.002;6.506;2023-02-15T01:07:37;78.65;;;47.20;;
64714;SDS011;51144;53.002;6.506;2023-02-15T01:10:04;81.28;;;48.78;;
64714;SDS011;51144;53.002;6.506;2023-02-15T01:12:30;74.60;;;45.33;;
64714;SDS011;51144;53.002;6.506;2023-02-15T01:14:56;80.07;;;47.47;;
64714;SDS011;51144;53.002;6.506;2023-02-15T01:17:22;75.13;;;46.33;;
64714;SDS011;51144;53.002;6.506;2023-02-15T01:19:47;80.35;;;46.22;;
64714;SDS011;51144;53.002;6.506;2023-02-15T01:22:13;67.57;;;43.20;;
64714;SDS011;51144;53.002;6.506;2023-02-15T01:24:39;68.07;;;41.65;;
64714;SDS011;51144;53.002;6.506;2023-02-15T01:27:04;65.88;;;41.05;;
64714;SDS011;51144;53.002;6.506;2023-02-15T01:29:30;60.72;;;41.53;;
64714;SDS011;51144;53.002;6.506;2023-02-15T01:31:56;71.82;;;41.80;;
64714;SDS011;51144;53.002;6.506;2023-02-15T01:34:21;70.65;;;42.38;;
64714;SDS011;51144;53.002;6.506;2023-02-15T01:36:47;64.80;;;39.63;;
64714;SDS011;51144;53.002;6.506;2023-02-15T01:39:13;55.60;;;36.30;;
64714;SDS011;51144;53.002;6.506;2023-02-15T01:41:40;60.20;;;36.75;;
64714;SDS011;51144;53.002;6.506;2023-02-15T01:47:43;64.35;;;43.50;;
64714;SDS011;51144;53.002;6.506;2023-02-15T01:50:31;60.63;;;40.42;;
64714;SDS011;51144;53.002;6.506;2023-02-15T01:58:30;55.13;;;37.13;;
64714;SDS011;51144;53.002;6.506;2023-02-15T02:00:57;51.92;;;36.47;;
64714;SDS011;51144;53.002;6.506;2023-02-15T02:03:30;55.80;;;36.30;;
64714;SDS011;51144;53.002;6.506;2023-02-15T02:06:20;57.38;;;36.40;;
64714;SDS011;51144;53.002;6.506;2023-02-15T02:08:46;60.63;;;36.85;;
64714;SDS011;51144;53.002;6.506;2023-02-15T02:11:13;54.70;;;35.22;;
64714;SDS011;51144;53.002;6.506;2023-02-15T02:13:40;55.20;;;37.63;;
64714;SDS011;51144;53.002;6.506;2023-02-15T02:19:05;57.92;;;38.90;;
64714;SDS011;51144;53.002;6.506;2023-02-15T02:32:33;55.47;;;34.13;;
64714;SDS011;51144;53.002;6.506;2023-02-15T02:38:28;54.92;;;35.30;;
64714;SDS011;51144;53.002;6.506;2023-02-15T02:41:13;47.15;;;33.15;;
64714;SDS011;51144;53.002;6.506;2023-02-15T02:45:02;45.35;;;31.55;;
64714;SDS011;51144;53.002;6.506;2023-02-15T02:49:42;45.92;;;31.48;;
64714;SDS011;51144;53.002;6.506;2023-02-15T02:55:01;43.05;;;31.52;;
64714;SDS011;51144;53.002;6.506;2023-02-15T02:57:30;45.53;;;31.48;;
64714;SDS011;51144;53.002;6.506;2023-02-15T02:59:57;46.30;;;32.30;;
64714;SDS011;51144;53.002;6.506;2023-02-15T03:02:29;49.75;;;32.88;;
64714;SDS011;51144;53.002;6.506;2023-02-15T03:05:01;48.53;;;32.92;;
64714;SDS011;51144;53.002;6.506;2023-02-15T03:07:31;50.42;;;31.00;;
64714;SDS011;51144;53.002;6.506;2023-02-15T03:09:59;45.95;;;32.50;;
64714;SDS011;51144;53.002;6.506;2023-02-15T03:12:28;50.28;;;33.55;;
64714;SDS011;51144;53.002;6.506;2023-02-15T03:15:20;50.38;;;33.05;;
64714;SDS011;51144;53.002;6.506;2023-02-15T03:17:51;53.80;;;35.00;;
64714;SDS011;51144;53.002;6.506;2023-02-15T03:22:51;65.38;;;40.65;;
64714;SDS011;51144;53.002;6.506;2023-02-15T03:25:26;65.47;;;41.45;;
64714;SDS011;51144;53.002;6.506;2023-02-15T03:28:00;63.88;;;40.78;;
64714;SDS011;51144;53.002;6.506;2023-02-15T03:30:29;80.88;;;48.63;;
64714;SDS011;51144;53.002;6.506;2023-02-15T03:32:57;68.05;;;44.13;;
64714;SDS011;51144;53.002;6.506;2023-02-15T03:35:25;74.30;;;43.95;;
64714;SDS011;51144;53.002;6.506;2023-02-15T03:37:57;61.65;;;39.47;;
64714;SDS011;51144;53.002;6.506;2023-02-15T03:40:34;61.15;;;40.35;;
64714;SDS011;51144;53.002;6.506;2023-02-15T03:43:32;67.68;;;37.35;;
64714;SDS011;51144;53.002;6.506;2023-02-15T03:46:11;62.55;;;39.00;;
64714;SDS011;51144;53.002;6.506;2023-02-15T03:48:42;75.05;;;46.05;;
64714;SDS011;51144;53.002;6.506;2023-02-15T03:51:13;73.18;;;46.75;;
64714;SDS011;51144;53.002;6.506;2023-02-15T03:53:58;76.10;;;48.78;;
64714;SDS011;51144;53.002;6.506;2023-02-15T03:56:28;82.75;;;49.50;;
64714;SDS011;51144;53.002;6.506;2023-02-15T03:58:54;82.05;;;51.17;;
64714;SDS011;51144;53.002;6.506;2023-02-15T04:04:33;88.97;;;54.28;;
64714;SDS011;51144;53.002;6.506;2023-02-15T04:07:01;86.78;;;52.92;;
64714;SDS011;51144;53.002;6.506;2023-02-15T04:09:28;91.25;;;52.80;;
64714;SDS011;51144;53.002;6.506;2023-02-15T04:12:13;77.22;;;49.17;;
64714;SDS011;51144;53.002;6.506;2023-02-15T04:14:39;70.72;;;48.22;;
64714;SDS011;51144;53.002;6.506;2023-02-15T04:17:23;76.07;;;45.33;;
64714;SDS011;51144;53.002;6.506;2023-02-15T04:19:49;69.35;;;44.22;;
64714;SDS011;51144;53.002;6.506;2023-02-15T04:22:33;74.22;;;44.65;;
64714;SDS011;51144;53.002;6.506;2023-02-15T04:25:18;66.10;;;44.25;;
64714;SDS011;51144;53.002;6.506;2023-02-15T04:27:44;67.97;;;45.10;;
64714;SDS011;51144;53.002;6.506;2023-02-15T04:30:13;69.28;;;44.47;;
64714;SDS011;51144;53.002;6.506;2023-02-15T04:32:40;64.40;;;43.28;;
64714;SDS011;51144;53.002;6.506;2023-02-15T04:35:06;69.72;;;45.35;;
64714;SDS011;51144;53.002;6.506;2023-02-15T04:37:32;65.78;;;42.88;;
64714;SDS011;51144;53.002;6.506;2023-02-15T04:39:58;63.17;;;41.42;;
64714;SDS011;51144;53.002;6.506;2023-02-15T04:42:24;81.28;;;43.38;;
64714;SDS011;51144;53.002;6.506;2023-02-15T04:44:50;84.07;;;42.53;;
64714;SDS011;51144;53.002;6.506;2023-02-15T04:47:16;132.73;;;47.15;;
64714;SDS011;51144;53.002;6.506;2023-02-15T04:49:42;225.75;;;49.50;;
64714;SDS011;51144;53.002;6.506;2023-02-15T04:52:08;269.90;;;50.28;;
64714;SDS011;51144;53.002;6.506;2023-02-15T04:54:33;235.98;;;44.80;;
64714;SDS011;51144;53.002;6.506;2023-02-15T04:56:59;362.92;;;53.10;;
64714;SDS011;51144;53.002;6.506;2023-02-15T04:59:25;254.82;;;45.53;;
64714;SDS011;51144;53.002;6.506;2023-02-15T05:01:50;407.10;;;52.10;;
64714;SDS011;51144;53.002;6.506;2023-02-15T05:04:16;218.43;;;43.25;;
64714;SDS011;51144;53.002;6.506;2023-02-15T05:06:41;94.47;;;41.25;;
64714;SDS011;51144;53.002;6.506;2023-02-15T05:09:07;262.88;;;43.85;;
64714;SDS011;51144;53.002;6.506;2023-02-15T05:11:33;192.05;;;41.13;;
64714;SDS011;51144;53.002;6.506;2023-02-15T05:13:58;234.75;;;43.63;;
64714;SDS011;51144;53.002;6.506;2023-02-15T05:16:24;177.25;;;43.58;;
64714;SDS011;51144;53.002;6.506;2023-02-15T05:18:50;285.52;;;48.63;;
64714;SDS011;51144;53.002;6.506;2023-02-15T05:21:16;327.95;;;49.63;;
64714;SDS011;51144;53.002;6.506;2023-02-15T05:23:42;162.70;;;43.70;;
64714;SDS011;51144;53.002;6.506;2023-02-15T05:26:16;209.38;;;44.90;;
64714;SDS011;51144;53.002;6.506;2023-02-15T05:29:02;194.88;;;42.88;;
64714;SDS011;51144;53.002;6.506;2023-02-15T05:31:28;306.40;;;50.25;;
64714;SDS011;51144;53.002;6.506;2023-02-15T05:33:55;361.23;;;49.35;;
64714;SDS011;51144;53.002;6.506;2023-02-15T05:36:21;245.73;;;43.85;;
64714;SDS011;51144;53.002;6.506;2023-02-15T05:38:46;181.00;;;41.38;;
64714;SDS011;51144;53.002;6.506;2023-02-15T05:41:12;162.20;;;40.75;;
64714;SDS011;51144;53.002;6.506;2023-02-15T05:43:38;170.55;;;40.22;;
64714;SDS011;51144;53.002;6.506;2023-02-15T05:46:04;133.75;;;39.25;;
64714;SDS011;51144;53.002;6.506;2023-02-15T05:48:30;138.82;;;39.90;;
64714;SDS011;51144;53.002;6.506;2023-02-15T05:51:10;99.72;;;39.03;;
64714;SDS011;51144;53.002;6.506;2023-02-15T05:53:40;84.88;;;37.45;;
64714;SDS011;51144;53.002;6.506;2023-02-15T05:56:07;67.38;;;37.70;;
64714;SDS011;51144;53.002;6.506;2023-02-15T05:58:35;58.33;;;37.85;;
64714;SDS011;51144;53.002;6.506;2023-02-15T06:01:12;59.28;;;38.13;;
64714;SDS011;51144;53.002;6.506;2023-02-15T06:03:39;56.78;;;37.58;;
64714;SDS011;51144;53.002;6.506;2023-02-15T06:06:06;58.30;;;37.05;;
64714;SDS011;51144;53.002;6.506;2023-02-15T06:08:32;63.17;;;39.67;;
64714;SDS011;51144;53.002;6.506;2023-02-15T06:10:59;55.38;;;38.42;;
64714;SDS011;51144;53.002;6.506;2023-02-15T06:13:25;57.13;;;39.63;;
64714;SDS011;51144;53.002;6.506;2023-02-15T06:15:50;60.13;;;40.00;;
64714;SDS011;51144;53.002;6.506;2023-02-15T06:18:16;56.72;;;39.15;;
64714;SDS011;51144;53.002;6.506;2023-02-15T06:20:41;59.30;;;39.03;;
64714;SDS011;51144;53.002;6.506;2023-02-15T06:23:10;53.45;;;37.60;;
64714;SDS011;51144;53.002;6.506;2023-02-15T06:25:35;62.60;;;39.22;;
64714;SDS011;51144;53.002;6.506;2023-02-15T06:28:01;56.10;;;36.42;;
64714;SDS011;51144;53.002;6.506;2023-02-15T06:30:27;56.75;;;38.20;;
64714;SDS011;51144;53.002;6.506;2023-02-15T06:32:52;55.17;;;37.40;;
64714;SDS011;51144;53.002;6.506;2023-02-15T06:35:18;64.38;;;39.33;;
64714;SDS011;51144;53.002;6.506;2023-02-15T06:37:45;58.25;;;36.40;;
64714;SDS011;51144;53.002;6.506;2023-02-15T06:40:11;53.78;;;37.13;;
64714;SDS011;51144;53.002;6.506;2023-02-15T06:42:37;60.67;;;37.30;;
64714;SDS011;51144;53.002;6.506;2023-02-15T06:45:03;58.30;;;37.70;;
64714;SDS011;51144;53.002;6.506;2023-02-15T06:47:29;61.53;;;40.10;;
64714;SDS011;51144;53.002;6.506;2023-02-15T06:49:55;60.00;;;39.20;;
64714;SDS011;51144;53.002;6.506;2023-02-15T06:52:20;55.35;;;37.67;;
64714;SDS011;51144;53.002;6.506;2023-02-15T06:54:46;54.40;;;36.97;;
64714;SDS011;51144;53.002;6.506;2023-02-15T06:57:12;53.70;;;36.38;;
64714;SDS011;51144;53.002;6.506;2023-02-15T06:59:37;54.25;;;36.53;;
64714;SDS011;51144;53.002;6.506;2023-02-15T07:02:03;57.83;;;36.17;;
64714;SDS011;51144;53.002;6.506;2023-02-15T07:04:29;50.90;;;35.83;;
64714;SDS011;51144;53.002;6.506;2023-02-15T07:06:55;56.13;;;36.70;;
64714;SDS011;51144;53.002;6.506;2023-02-15T07:09:21;61.55;;;39.53;;
64714;SDS011;51144;53.002;6.506;2023-02-15T07:11:47;56.28;;;38.05;;
64714;SDS011;51144;53.002;6.506;2023-02-15T07:14:31;57.42;;;37.72;;
64714;SDS011;51144;53.002;6.506;2023-02-15T07:16:57;60.13;;;37.90;;
64714;SDS011;51144;53.002;6.506;2023-02-15T07:19:23;53.67;;;36.92;;
64714;SDS011;51144;53.002;6.506;2023-02-15T07:21:48;61.05;;;39.13;;
64714;SDS011;51144;53.002;6.506;2023-02-15T07:24:14;60.65;;;38.65;;
64714;SDS011;51144;53.002;6.506;2023-02-15T07:26:40;57.17;;;38.63;;
64714;SDS011;51144;53.002;6.506;2023-02-15T07:29:06;60.30;;;38.80;;
64714;SDS011;51144;53.002;6.506;2023-02-15T07:31:31;57.45;;;39.22;;
64714;SDS011;51144;53.002;6.506;2023-02-15T07:33:57;57.67;;;39.67;;
64714;SDS011;51144;53.002;6.506;2023-02-15T07:36:23;62.00;;;41.90;;
64714;SDS011;51144;53.002;6.506;2023-02-15T07:38:48;57.88;;;39.13;;
64714;SDS011;51144;53.002;6.506;2023-02-15T07:41:14;59.05;;;38.13;;
64714;SDS011;51144;53.002;6.506;2023-02-15T07:43:41;51.75;;;35.47;;
64714;SDS011;51144;53.002;6.506;2023-02-15T07:46:09;46.08;;;34.38;;
64714;SDS011;51144;53.002;6.506;2023-02-15T07:48:37;45.17;;;31.30;;
64714;SDS011;51144;53.002;6.506;2023-02-15T07:51:05;36.00;;;27.15;;
64714;SDS011;51144;53.002;6.506;2023-02-15T07:53:32;41.35;;;27.30;;
64714;SDS011;51144;53.002;6.506;2023-02-15T07:55:59;38.15;;;27.00;;
64714;SDS011;51144;53.002;6.506;2023-02-15T07:58:26;33.50;;;24.40;;
64714;SDS011;51144;53.002;6.506;2023-02-15T08:01:11;35.25;;;26.15;;
64714;SDS011;51144;53.002;6.506;2023-02-15T08:03:38;37.13;;;27.35;;
64714;SDS011;51144;53.002;6.506;2023-02-15T08:06:03;32.70;;;24.08;;
64714;SDS011;51144;53.002;6.506;2023-02-15T08:08:29;33.53;;;24.52;;
64714;SDS011;51144;53.002;6.506;2023-02-15T08:10:59;36.13;;;24.25;;
64714;SDS011;51144;53.002;6.506;2023-02-15T08:13:45;34.30;;;24.63;;
64714;SDS011;51144;53.002;6.506;2023-02-15T08:19:01;33.30;;;24.92;;
64714;SDS011;51144;53.002;6.506;2023-02-15T08:21:30;32.65;;;24.15;;
64714;SDS011;51144;53.002;6.506;2023-02-15T08:23:57;31.77;;;23.90;;
64714;SDS011;51144;53.002;6.506;2023-02-15T08:26:24;30.42;;;23.45;;
64714;SDS011;51144;53.002;6.506;2023-02-15T08:28:51;31.75;;;23.88;;
64714;SDS011;51144;53.002;6.506;2023-02-15T08:31:16;31.83;;;23.25;;
64714;SDS011;51144;53.002;6.506;2023-02-15T08:33:43;32.90;;;23.63;;
64714;SDS011;51144;53.002;6.506;2023-02-15T08:36:11;30.63;;;22.90;;
64714;SDS011;51144;53.002;6.506;2023-02-15T08:38:39;32.88;;;24.48;;
64714;SDS011;51144;53.002;6.506;2023-02-15T08:41:18;35.47;;;24.67;;
64714;SDS011;51144;53.002;6.506;2023-02-15T08:43:50;36.92;;;25.20;;
64714;SDS011;51144;53.002;6.506;2023-02-15T08:46:18;33.92;;;24.98;;
64714;SDS011;51144;53.002;6.506;2023-02-15T08:48:44;30.38;;;23.58;;
64714;SDS011;51144;53.002;6.506;2023-02-15T08:51:14;34.92;;;24.85;;
64714;SDS011;51144;53.002;6.506;2023-02-15T08:53:50;31.33;;;23.60;;
64714;SDS011;51144;53.002;6.506;2023-02-15T08:56:21;38.10;;;24.30;;
64714;SDS011;51144;53.002;6.506;2023-02-15T08:58:49;31.80;;;23.38;;
64714;SDS011;51144;53.002;6.506;2023-02-15T09:01:19;33.40;;;24.20;;
64714;SDS011;51144;53.002;6.506;2023-02-15T09:03:47;38.47;;;25.30;;
64714;SDS011;51144;53.002;6.506;2023-02-15T09:06:14;30.40;;;23.75;;
64714;SDS011;51144;53.002;6.506;2023-02-15T09:08:41;34.72;;;24.92;;
64714;SDS011;51144;53.002;6.506;2023-02-15T09:11:15;33.70;;;25.15;;
64714;SDS011;51144;53.002;6.506;2023-02-15T09:13:57;37.38;;;26.70;;
64714;SDS011;51144;53.002;6.506;2023-02-15T09:16:29;33.15;;;25.90;;
64714;SDS011;51144;53.002;6.506;2023-02-15T09:18:57;34.88;;;25.52;;
64714;SDS011;51144;53.002;6.506;2023-02-15T09:21:23;39.72;;;26.08;;
64714;SDS011;51144;53.002;6.506;2023-02-15T09:23:52;34.00;;;25.33;;
64714;SDS011;51144;53.002;6.506;2023-02-15T09:26:21;32.03;;;25.83;;
64714;SDS011;51144;53.002;6.506;2023-02-15T09:28:50;36.03;;;24.90;;
64714;SDS011;51144;53.002;6.506;2023-02-15T09:31:18;36.67;;;26.75;;
64714;SDS011;51144;53.002;6.506;2023-02-15T09:33:46;33.88;;;26.02;;
64714;SDS011;51144;53.002;6.506;2023-02-15T09:36:17;35.70;;;25.70;;
64714;SDS011;51144;53.002;6.506;2023-02-15T09:38:47;33.33;;;26.15;;
64714;SDS011;51144;53.002;6.506;2023-02-15T09:58:40;37.10;;;27.38;;
64714;SDS011;51144;53.002;6.506;2023-02-15T10:02:03;34.83;;;26.90;;
64714;SDS011;51144;53.002;6.506;2023-02-15T10:15:10;33.88;;;27.13;;
64714;SDS011;51144;53.002;6.506;2023-02-15T10:20:41;36.17;;;29.58;;
64714;SDS011;51144;53.002;6.506;2023-02-15T10:26:02;33.70;;;27.95;;
64714;SDS011;51144;53.002;6.506;2023-02-15T10:31:26;36.45;;;28.17;;
64714;SDS011;51144;53.002;6.506;2023-02-15T10:47:54;37.83;;;29.42;;
64714;SDS011;51144;53.002;6.506;2023-02-15T10:58:34;39.60;;;30.45;;
64714;SDS011;51144;53.002;6.506;2023-02-15T11:01:34;36.97;;;29.02;;
64714;SDS011;51144;53.002;6.506;2023-02-15T11:07:15;36.10;;;28.17;;
64714;SDS011;51144;53.002;6.506;2023-02-15T11:12:57;37.10;;;28.57;;
64714;SDS011;51144;53.002;6.506;2023-02-15T11:18:02;41.75;;;30.85;;
64714;SDS011;51144;53.002;6.506;2023-02-15T11:23:15;35.35;;;28.65;;
64714;SDS011;51144;53.002;6.506;2023-02-15T11:25:44;38.63;;;28.95;;
64714;SDS011;51144;53.002;6.506;2023-02-15T11:28:18;36.70;;;28.38;;
64714;SDS011;51144;53.002;6.506;2023-02-15T11:30:49;36.95;;;28.67;;
64714;SDS011;51144;53.002;6.506;2023-02-15T11:33:26;38.67;;;28.05;;
64714;SDS011;51144;53.002;6.506;2023-02-15T11:36:15;40.50;;;29.65;;
64714;SDS011;51144;53.002;6.506;2023-02-15T11:38:49;39.13;;;28.65;;
64714;SDS011;51144;53.002;6.506;2023-02-15T11:41:22;37.65;;;28.30;;
64714;SDS011;51144;53.002;6.506;2023-02-15T11:46:33;41.67;;;30.58;;
64714;SDS011;51144;53.002;6.506;2023-02-15T11:48:59;38.78;;;31.33;;
64714;SDS011;51144;53.002;6.506;2023-02-15T11:51:25;41.90;;;31.17;;
64714;SDS011;51144;53.002;6.506;2023-02-15T11:53:53;40.28;;;30.10;;
64714;SDS011;51144;53.002;6.506;2023-02-15T11:56:23;37.03;;;29.92;;
64714;SDS011;51144;53.002;6.506;2023-02-15T12:01:29;41.58;;;31.92;;
64714;SDS011;51144;53.002;6.506;2023-02-15T12:04:09;40.55;;;30.60;;
64714;SDS011;51144;53.002;6.506;2023-02-15T12:06:57;39.97;;;30.75;;
64714;SDS011;51144;53.002;6.506;2023-02-15T12:09:35;42.90;;;32.08;;
64714;SDS011;51144;53.002;6.506;2023-02-15T12:15:05;39.80;;;32.65;;
64714;SDS011;51144;53.002;6.506;2023-02-15T12:17:33;41.58;;;32.38;;
64714;SDS011;51144;53.002;6.506;2023-02-15T12:22:37;37.97;;;30.55;;
64714;SDS011;51144;53.002;6.506;2023-02-15T12:25:26;42.60;;;33.53;;
64714;SDS011;51144;53.002;6.506;2023-02-15T12:28:00;43.75;;;33.00;;
64714;SDS011;51144;53.002;6.506;2023-02-15T12:30:31;41.95;;;31.23;;
64714;SDS011;51144;53.002;6.506;2023-02-15T12:36:21;41.20;;;31.10;;
64714;SDS011;51144;53.002;6.506;2023-02-15T12:41:38;43.42;;;32.00;;
64714;SDS011;51144;53.002;6.506;2023-02-15T12:44:17;46.22;;;31.63;;
64714;SDS011;51144;53.002;6.506;2023-02-15T12:46:55;41.05;;;31.08;;
64714;SDS011;51144;53.002;6.506;2023-02-15T12:49:26;40.95;;;31.02;;
64714;SDS011;51144;53.002;6.506;2023-02-15T12:51:54;41.13;;;30.73;;
64714;SDS011;51144;53.002;6.506;2023-02-15T12:56:47;40.00;;;30.05;;
64714;SDS011;51144;53.002;6.506;2023-02-15T12:59:13;40.53;;;30.98;;
64714;SDS011;51144;53.002;6.506;2023-02-15T13:01:40;40.13;;;29.92;;
64714;SDS011;51144;53.002;6.506;2023-02-15T13:04:28;38.08;;;29.13;;
64714;SDS011;51144;53.002;6.506;2023-02-15T13:06:57;35.22;;;28.58;;
64714;SDS011;51144;53.002;6.506;2023-02-15T13:09:35;41.72;;;28.13;;
64714;SDS011;51144;53.002;6.506;2023-02-15T13:14:43;38.22;;;27.27;;
64714;SDS011;51144;53.002;6.506;2023-02-15T13:17:10;37.53;;;28.42;;
64714;SDS011;51144;53.002;6.506;2023-02-15T13:22:14;38.72;;;28.02;;
64714;SDS011;51144;53.002;6.506;2023-02-15T13:24:59;34.00;;;25.52;;
64714;SDS011;51144;53.002;6.506;2023-02-15T13:27:34;36.03;;;26.50;;
64714;SDS011;51144;53.002;6.506;2023-02-15T13:30:08;35.25;;;25.85;;
64714;SDS011;51144;53.002;6.506;2023-02-15T13:32:46;35.63;;;27.33;;
64714;SDS011;51144;53.002;6.506;2023-02-15T13:35:17;40.25;;;26.20;;
64714;SDS011;51144;53.002;6.506;2023-02-15T13:40:22;37.10;;;26.52;;
64714;SDS011;51144;53.002;6.506;2023-02-15T13:43:40;33.55;;;25.67;;
64714;SDS011;51144;53.002;6.506;2023-02-15T13:45:56;38.13;;;26.48;;
64714;SDS011;51144;53.002;6.506;2023-02-15T13:48:41;38.65;;;27.27;;
64714;SDS011;51144;53.002;6.506;2023-02-15T14:02:28;39.92;;;26.60;;
64714;SDS011;51144;53.002;6.506;2023-02-15T14:21:23;33.38;;;27.30;;
64714;SDS011;51144;53.002;6.506;2023-02-15T14:27:22;35.17;;;27.63;;
64714;SDS011;51144;53.002;6.506;2023-02-15T14:32:04;36.10;;;27.48;;
64714;SDS011;51144;53.002;6.506;2023-02-15T14:34:42;35.45;;;26.85;;
64714;SDS011;51144;53.002;6.506;2023-02-15T14:37:12;34.22;;;27.25;;
64714;SDS011;51144;53.002;6.506;2023-02-15T14:39:43;34.63;;;26.88;;
64714;SDS011;51144;53.002;6.506;2023-02-15T14:43:14;35.67;;;27.58;;
64714;SDS011;51144;53.002;6.506;2023-02-15T14:45:55;36.72;;;26.75;;
64714;SDS011;51144;53.002;6.506;2023-02-15T14:48:27;39.08;;;26.92;;
64714;SDS011;51144;53.002;6.506;2023-02-15T14:50:56;34.00;;;27.02;;
64714;SDS011;51144;53.002;6.506;2023-02-15T14:53:38;37.45;;;27.75;;
64714;SDS011;51144;53.002;6.506;2023-02-15T15:01:14;29.92;;;24.60;;
64714;SDS011;51144;53.002;6.506;2023-02-15T15:03:47;40.30;;;27.08;;
64714;SDS011;51144;53.002;6.506;2023-02-15T15:06:28;34.78;;;25.92;;
64714;SDS011;51144;53.002;6.506;2023-02-15T15:08:57;35.83;;;26.35;;
64714;SDS011;51144;53.002;6.506;2023-02-15T15:11:38;32.50;;;25.95;;
64714;SDS011;51144;53.002;6.506;2023-02-15T15:14:04;34.28;;;26.45;;
64714;SDS011;51144;53.002;6.506;2023-02-15T15:19:02;32.63;;;25.98;;
64714;SDS011;51144;53.002;6.506;2023-02-15T15:24:48;36.47;;;26.35;;
64714;SDS011;51144;53.002;6.506;2023-02-15T15:46:44;40.33;;;26.92;;
64714;SDS011;51144;53.002;6.506;2023-02-15T15:49:34;33.25;;;26.48;;
64714;SDS011;51144;53.002;6.506;2023-02-15T15:52:03;34.53;;;25.88;;
64714;SDS011;51144;53.002;6.506;2023-02-15T15:54:45;34.35;;;24.05;;
64714;SDS011;51144;53.002;6.506;2023-02-15T15:57:22;32.50;;;25.63;;
64714;SDS011;51144;53.002;6.506;2023-02-15T15:59:53;37.15;;;25.80;;
64714;SDS011;51144;53.002;6.506;2023-02-15T16:02:19;34.95;;;26.70;;
64714;SDS011;51144;53.002;6.506;2023-02-15T16:04:45;35.92;;;26.17;;
64714;SDS011;51144;53.002;6.506;2023-02-15T16:07:33;35.72;;;26.50;;
64714;SDS011;51144;53.002;6.506;2023-02-15T16:12:30;35.80;;;25.48;;
64714;SDS011;51144;53.002;6.506;2023-02-15T16:15:03;38.88;;;26.67;;
64714;SDS011;51144;53.002;6.506;2023-02-15T16:17:38;39.45;;;26.70;;
64714;SDS011;51144;53.002;6.506;2023-02-15T16:20:29;35.05;;;25.70;;
64714;SDS011;51144;53.002;6.506;2023-02-15T16:28:28;33.25;;;26.17;;
64714;SDS011;51144;53.002;6.506;2023-02-15T16:30:55;36.42;;;26.00;;
64714;SDS011;51144;53.002;6.506;2023-02-15T16:33:38;34.57;;;25.17;;
64714;SDS011;51144;53.002;6.506;2023-02-15T16:36:05;35.65;;;26.15;;
64714;SDS011;51144;53.002;6.506;2023-02-15T16:41:07;31.92;;;24.33;;
64714;SDS011;51144;53.002;6.506;2023-02-15T16:43:35;36.90;;;24.15;;
64714;SDS011;51144;53.002;6.506;2023-02-15T16:46:04;36.35;;;24.98;;
64714;SDS011;51144;53.002;6.506;2023-02-15T16:48:32;36.65;;;24.60;;
64714;SDS011;51144;53.002;6.506;2023-02-15T16:51:00;33.25;;;23.98;;
64714;SDS011;51144;53.002;6.506;2023-02-15T16:53:26;36.85;;;25.02;;
64714;SDS011;51144;53.002;6.506;2023-02-15T16:55:57;35.75;;;24.95;;
64714;SDS011;51144;53.002;6.506;2023-02-15T16:58:29;32.45;;;24.10;;
64714;SDS011;51144;53.002;6.506;2023-02-15T17:01:01;33.47;;;25.10;;
64714;SDS011;51144;53.002;6.506;2023-02-15T17:03:28;33.83;;;24.90;;
64714;SDS011;51144;53.002;6.506;2023-02-15T17:05:55;36.95;;;26.30;;
64714;SDS011;51144;53.002;6.506;2023-02-15T17:08:41;32.50;;;24.70;;
64714;SDS011;51144;53.002;6.506;2023-02-15T17:11:13;36.30;;;27.38;;
64714;SDS011;51144;53.002;6.506;2023-02-15T17:17:13;34.90;;;24.10;;
64714;SDS011;51144;53.002;6.506;2023-02-15T17:21:54;36.60;;;25.55;;
64714;SDS011;51144;53.002;6.506;2023-02-15T17:24:43;34.15;;;24.77;;
64714;SDS011;51144;53.002;6.506;2023-02-15T17:27:14;35.47;;;26.33;;
64714;SDS011;51144;53.002;6.506;2023-02-15T17:32:13;37.35;;;25.65;;
64714;SDS011;51144;53.002;6.506;2023-02-15T17:34:50;37.17;;;27.05;;
64714;SDS011;51144;53.002;6.506;2023-02-15T17:40:21;37.10;;;26.08;;
64714;SDS011;51144;53.002;6.506;2023-02-15T17:42:47;37.38;;;26.23;;
64714;SDS011;51144;53.002;6.506;2023-02-15T17:45:13;38.88;;;26.15;;
64714;SDS011;51144;53.002;6.506;2023-02-15T17:47:39;35.50;;;24.58;;
64714;SDS011;51144;53.002;6.506;2023-02-15T17:50:06;40.92;;;26.90;;
64714;SDS011;51144;53.002;6.506;2023-02-15T17:52:32;35.85;;;26.15;;
64714;SDS011;51144;53.002;6.506;2023-02-15T17:55:01;37.65;;;26.42;;
64714;SDS011;51144;53.002;6.506;2023-02-15T18:00:21;41.28;;;27.25;;
64714;SDS011;51144;53.002;6.506;2023-02-15T18:05:53;41.17;;;27.25;;
64714;SDS011;51144;53.002;6.506;2023-02-15T18:08:37;36.90;;;27.92;;
64714;SDS011;51144;53.002;6.506;2023-02-15T18:11:22;41.25;;;28.35;;
64714;SDS011;51144;53.002;6.506;2023-02-15T18:14:07;41.72;;;28.55;;
64714;SDS011;51144;53.002;6.506;2023-02-15T18:16:34;43.10;;;28.83;;
64714;SDS011;51144;53.002;6.506;2023-02-15T18:19:03;43.90;;;29.67;;
64714;SDS011;51144;53.002;6.506;2023-02-15T18:21:30;45.25;;;31.20;;
64714;SDS011;51144;53.002;6.506;2023-02-15T18:23:56;45.60;;;30.40;;
64714;SDS011;51144;53.002;6.506;2023-02-15T18:26:23;44.53;;;30.67;;
64714;SDS011;51144;53.002;6.506;2023-02-15T18:28:50;46.13;;;30.83;;
64714;SDS011;51144;53.002;6.506;2023-02-15T18:31:16;45.53;;;31.25;;